Time;durP1;ratioP1;P1;durP2;ratioP2;P2;SDS_P1;SDS_P2;PMS_P1;PMS_P2;Temp;Humidity;BMP_temperature;BMP_pressure;BME280_temperature;BME280_humidity;BME280_pressure;Samples;Min_cycle;Max_cycle;Signal;HPM_P1;HPM_P2
2021/08/13 00:01:11;;;;;;;;;;;;;;;23.99;68.47;99404.50;5072826;28;19919;-82
2021/08/13 00:03:36;;;;;;;;;;;;;;;23.99;67.40;99399.22;5070077;28;19972;-82
2021/08/13 00:06:01;;;;;;;;;;;;;;;24.10;67.53;99396.56;5058148;28;20378;-82
2021/08/13 00:08:27;;;;;;;;;;;;;;;23.90;64.83;99399.97;5073046;28;20027;-82
2021/08/13 00:10:52;;;;;;;;;;;;;;;23.39;66.06;99399.56;5054462;28;19931;-82
2021/08/13 00:13:18;;;;;;;;;;;;;;;23.86;67.63;99398.56;5073243;28;19970;-82
2021/08/13 00:15:43;;;;;;;;;;;;;;;23.72;64.52;99392.59;5072072;28;19912;-82
2021/08/13 00:18:08;;;;;;;;;;;;;;;23.22;69.34;99399.22;5075271;28;20427;-82
2021/08/13 00:20:34;;;;;;;;;;;;;;;23.12;67.92;99388.59;5074449;28;19916;-82
2021/08/13 00:23:00;;;;;;;;;;;;;;;22.46;72.50;99389.19;5076480;28;19928;-82
2021/08/13 00:25:25;;;;;;;;;;;;;;;22.53;71.91;99389.56;5078216;28;19916;-82
2021/08/13 00:27:50;;;;;;;;;;;;;;;23.09;70.42;99384.41;5059487;28;20639;-82
2021/08/13 00:30:16;;;;;;;;;;;;;;;23.10;67.81;99395.75;5055009;28;19926;-82
2021/08/13 00:32:41;;;;;;;;;;;;;;;23.24;70.38;99387.66;5077691;28;19928;-82
2021/08/13 00:35:06;;;;;;;;;;;;;;;23.42;69.31;99392.41;5058690;28;19916;-82
2021/08/13 00:37:32;;;;;;;;;;;;;;;23.33;63.62;99391.31;5077056;28;20018;-82
2021/08/13 00:39:57;;;;;;;;;;;;;;;23.20;67.33;99391.47;5074917;28;19916;-82
2021/08/13 00:42:23;;;;;;;;;;;;;;;23.30;65.33;99396.84;5075201;28;20399;-82
2021/08/13 00:44:48;;;;;;;;;;;;;;;22.85;67.48;99400.22;5072287;28;19920;-82
2021/08/13 00:47:14;;;;;;;;;;;;;;;23.04;68.07;99398.88;5075460;28;19947;-82
2021/08/13 00:49:39;;;;;;;;;;;;;;;23.28;68.95;99402.19;5058907;28;19920;-82
2021/08/13 00:52:04;;;;;;;;;;;;;;;23.42;67.91;99413.44;5076448;28;20435;-82
2021/08/13 00:54:30;;;;;;;;;;;;;;;23.48;65.57;99412.94;5058739;28;19974;-82
2021/08/13 00:56:55;;;;;;;;;;;;;;;23.24;65.11;99407.81;5059746;28;19920;-82
2021/08/13 00:59:20;;;;;;;;;;;;;;;22.94;65.99;99417.94;5074244;28;20010;-82
2021/08/13 01:01:46;;;;;;;;;;;;;;;22.62;71.11;99416.91;5057909;28;19927;-82
2021/08/13 01:04:11;;;;;;;;;;;;;;;22.85;67.31;99418.63;5075455;28;19920;-82
2021/08/13 01:06:37;;;;;;;;;;;;;;;23.01;67.14;99406.97;5074280;28;19923;-82
2021/08/13 01:09:02;;;;;;;;;;;;;;;22.48;69.24;99408.28;5075667;28;19927;-82
2021/08/13 01:11:46;;;;;;;;;;;;;;;22.82;67.74;99400.47;5074268;28;19974;-82
2021/08/13 01:14:26;;;;;;;;;;;;;;;23.00;67.06;99405.31;5073132;28;19920;-82
2021/08/13 01:16:53;;;;;;;;;;;;;;;22.95;64.63;99397.75;5074384;28;20581;-82
2021/08/13 01:19:21;;;;;;;;;;;;;;;22.95;66.30;99392.50;5056158;28;19916;-82
2021/08/13 01:21:57;;;;;;;;;;;;;;;23.18;66.62;99388.97;5057796;28;19993;-82
2021/08/13 01:24:23;;;;;;;;;;;;;;;23.28;66.16;99383.81;5075848;28;19916;-82
2021/08/13 01:26:51;;;;;;;;;;;;;;;23.35;64.28;99385.00;5055072;28;20851;-82
2021/08/13 01:29:22;;;;;;;;;;;;;;;23.31;64.39;99394.09;5057144;28;19931;-82
2021/08/13 01:32:08;;;;;;;;;;;;;;;23.00;62.62;99389.56;5075406;28;19920;-82
2021/08/13 01:34:34;;;;;;;;;;;;;;;22.83;62.79;99386.41;5042219;28;19963;-82
2021/08/13 01:36:59;;;;;;;;;;;;;;;22.76;64.20;99385.19;5074093;28;19966;-82
2021/08/13 01:39:26;;;;;;;;;;;;;;;22.66;66.50;99371.09;5057684;28;20119;-82
2021/08/13 01:41:51;;;;;;;;;;;;;;;22.65;66.29;99379.91;5073009;28;19916;-82
2021/08/13 01:44:17;;;;;;;;;;;;;;;22.37;65.90;99365.44;5057509;28;20402;-82
2021/08/13 01:46:42;;;;;;;;;;;;;;;22.17;69.13;99374.75;5075798;28;19916;-82
2021/08/13 01:49:08;;;;;;;;;;;;;;;22.48;70.29;99379.41;5057415;28;19919;-82
2021/08/13 01:51:33;;;;;;;;;;;;;;;22.74;65.63;99376.63;5073709;28;19924;-82
2021/08/13 01:53:58;;;;;;;;;;;;;;;22.74;64.32;99374.81;5054472;28;19920;-82
2021/08/13 01:56:26;;;;;;;;;;;;;;;22.61;68.30;99383.75;5055138;28;19921;-82
2021/08/13 01:58:51;;;;;;;;;;;;;;;22.46;64.76;99381.31;5057357;28;19920;-82
2021/08/13 02:01:16;;;;;;;;;;;;;;;22.18;68.34;99382.50;5073066;28;19930;-82
2021/08/13 02:03:42;;;;;;;;;;;;;;;22.04;70.43;99386.16;5057592;28;19926;-82
2021/08/13 02:06:07;;;;;;;;;;;;;;;22.38;67.14;99383.69;5075411;28;19951;-82
2021/08/13 02:08:33;;;;;;;;;;;;;;;22.34;71.06;99392.75;5075676;28;19917;-82
2021/08/13 02:10:58;;;;;;;;;;;;;;;22.19;70.26;99385.97;5057665;28;20011;-82
2021/08/13 02:13:23;;;;;;;;;;;;;;;22.51;67.90;99384.44;5074112;28;20341;-82
2021/08/13 02:15:52;;;;;;;;;;;;;;;22.59;70.73;99385.66;5073640;28;19912;-82
2021/08/13 02:18:19;;;;;;;;;;;;;;;22.60;68.87;99384.69;5074127;28;19916;-82
2021/08/13 02:20:45;;;;;;;;;;;;;;;22.58;69.77;99376.09;5073529;28;19970;-82
2021/08/13 02:23:10;;;;;;;;;;;;;;;22.33;71.13;99375.34;5073388;28;19920;-82
2021/08/13 02:25:36;;;;;;;;;;;;;;;22.63;70.07;99381.84;5070994;28;19963;-82
2021/08/13 02:28:02;;;;;;;;;;;;;;;22.63;67.84;99373.97;5074703;28;19923;-82
2021/08/13 02:30:27;;;;;;;;;;;;;;;22.74;70.44;99374.81;5055373;28;21091;-82
2021/08/13 02:32:52;;;;;;;;;;;;;;;22.69;69.66;99365.59;5072126;28;19942;-82
2021/08/13 02:35:18;;;;;;;;;;;;;;;22.70;70.83;99362.03;5056778;28;19942;-83
2021/08/13 02:37:54;;;;;;;;;;;;;;;22.67;71.24;99367.50;5056182;28;19917;-82
2021/08/13 02:40:22;;;;;;;;;;;;;;;22.64;67.67;99359.88;5066162;28;19924;-82
2021/08/13 02:42:48;;;;;;;;;;;;;;;22.57;70.80;99363.94;5058081;28;19916;-82
2021/08/13 02:45:14;;;;;;;;;;;;;;;22.41;66.37;99367.72;5071494;28;19920;-82
2021/08/13 02:47:40;;;;;;;;;;;;;;;22.16;65.93;99371.28;5056686;28;19923;-82
2021/08/13 02:50:08;;;;;;;;;;;;;;;22.24;69.46;99370.78;5054753;28;19916;-82
2021/08/13 02:52:42;;;;;;;;;;;;;;;22.23;68.41;99369.91;5074142;28;19928;-82
2021/08/13 02:55:08;;;;;;;;;;;;;;;22.13;69.17;99364.50;5072505;28;19995;-82
2021/08/13 02:57:34;;;;;;;;;;;;;;;22.09;66.99;99363.03;5048067;28;20015;-82
2021/08/13 03:00:03;;;;;;;;;;;;;;;21.73;71.42;99369.19;5073625;28;19943;-82
2021/08/13 03:02:29;;;;;;;;;;;;;;;21.99;69.56;99371.72;5064913;28;19920;-82
2021/08/13 03:04:54;;;;;;;;;;;;;;;21.66;71.26;99360.09;5071047;28;19977;-82
2021/08/13 03:07:19;;;;;;;;;;;;;;;21.74;70.46;99362.19;5054241;28;19921;-82
2021/08/13 03:09:45;;;;;;;;;;;;;;;22.15;67.02;99353.91;5073272;28;20311;-82
2021/08/13 03:12:11;;;;;;;;;;;;;;;21.84;69.37;99358.75;5046736;28;19925;-82
2021/08/13 03:14:36;;;;;;;;;;;;;;;21.87;69.35;99357.69;5071216;28;20450;-82
2021/08/13 03:17:02;;;;;;;;;;;;;;;21.88;73.92;99354.16;5072443;28;19923;-82
2021/08/13 03:19:27;;;;;;;;;;;;;;;21.86;69.47;99361.28;5057023;28;19916;-82
2021/08/13 03:21:52;;;;;;;;;;;;;;;21.46;73.28;99359.75;5054559;28;19928;-82
2021/08/13 03:24:18;;;;;;;;;;;;;;;21.37;75.86;99362.13;5069284;28;20397;-82
2021/08/13 03:26:43;;;;;;;;;;;;;;;21.54;73.61;99366.22;5072948;28;19924;-82
2021/08/13 03:29:09;;;;;;;;;;;;;;;21.47;73.29;99373.69;5055175;28;19958;-82
2021/08/13 03:31:38;;;;;;;;;;;;;;;21.50;72.80;99370.84;5055421;28;19924;-82
2021/08/13 03:34:04;;;;;;;;;;;;;;;21.35;75.78;99369.28;5055147;28;20444;-82
2021/08/13 03:36:29;;;;;;;;;;;;;;;21.13;77.24;99364.72;5070372;28;19932;-82
2021/08/13 03:38:55;;;;;;;;;;;;;;;21.43;76.30;99369.59;5054100;28;19916;-82
2021/08/13 03:41:21;;;;;;;;;;;;;;;21.76;72.37;99370.75;5072727;28;20260;-82
2021/08/13 03:43:46;;;;;;;;;;;;;;;21.78;70.63;99376.72;5075942;28;19923;-82
2021/08/13 03:46:11;;;;;;;;;;;;;;;22.03;70.23;99373.16;5054512;28;19916;-82
2021/08/13 03:48:37;;;;;;;;;;;;;;;21.72;72.79;99378.84;5054648;28;19963;-82
2021/08/13 03:51:02;;;;;;;;;;;;;;;21.77;74.62;99373.28;5074436;28;19931;-81
2021/08/13 03:53:27;;;;;;;;;;;;;;;21.63;71.98;99371.66;5076315;28;19981;-81
2021/08/13 03:55:52;;;;;;;;;;;;;;;21.50;74.32;99371.66;5076839;28;20019;-81
2021/08/13 03:58:18;;;;;;;;;;;;;;;21.60;73.49;99382.34;5073107;28;19934;-82
2021/08/13 04:00:43;;;;;;;;;;;;;;;21.49;72.49;99375.25;5073887;28;19924;-81
2021/08/13 04:03:09;;;;;;;;;;;;;;;21.43;75.89;99372.22;5071782;28;19921;-82
2021/08/13 04:05:34;;;;;;;;;;;;;;;21.25;76.52;99369.91;5077029;28;19916;-82
2021/08/13 04:07:59;;;;;;;;;;;;;;;21.59;71.61;99375.44;5057970;28;19970;-82
2021/08/13 04:10:24;;;;;;;;;;;;;;;21.86;72.87;99374.38;5075288;28;20474;-81
2021/08/13 04:12:50;;;;;;;;;;;;;;;21.47;75.60;99371.06;5061860;28;19924;-82
2021/08/13 04:15:15;;;;;;;;;;;;;;;21.69;71.77;99373.84;5058303;28;19927;-83
2021/08/13 04:17:40;;;;;;;;;;;;;;;21.98;73.38;99381.34;5058855;28;20499;-82
2021/08/13 04:20:06;;;;;;;;;;;;;;;21.92;72.04;99376.56;5074252;28;20264;-82
2021/08/13 04:22:31;;;;;;;;;;;;;;;22.06;70.60;99363.28;5054826;28;19920;-82
2021/08/13 04:24:57;;;;;;;;;;;;;;;22.05;66.41;99360.75;5066312;28;19916;-82
2021/08/13 04:27:22;;;;;;;;;;;;;;;21.89;68.66;99369.75;5058603;28;20302;-82
2021/08/13 04:29:47;;;;;;;;;;;;;;;22.24;69.51;99361.09;5075994;28;19962;-82
2021/08/13 04:32:12;;;;;;;;;;;;;;;21.62;69.69;99356.03;5076388;28;20075;-81
2021/08/13 04:34:38;;;;;;;;;;;;;;;21.43;74.98;99359.13;5060509;28;19923;-82
2021/08/13 04:37:03;;;;;;;;;;;;;;;21.55;72.51;99355.63;5072152;28;19925;-82
2021/08/13 04:39:28;;;;;;;;;;;;;;;21.99;71.48;99354.19;5075183;28;19912;-82
2021/08/13 04:41:55;;;;;;;;;;;;;;;21.68;73.92;99353.78;5076202;28;19955;-82
2021/08/13 04:44:20;;;;;;;;;;;;;;;21.17;77.82;99363.56;5062312;28;19920;-82
2021/08/13 04:46:45;;;;;;;;;;;;;;;21.17;79.66;99353.94;5055209;28;19945;-81
2021/08/13 04:49:12;;;;;;;;;;;;;;;21.41;76.15;99347.91;5068375;28;20042;-81
2021/08/13 04:51:37;;;;;;;;;;;;;;;21.68;73.79;99343.31;5070361;28;19924;-82
2021/08/13 04:54:02;;;;;;;;;;;;;;;21.51;74.88;99341.91;5049370;28;19916;-82
2021/08/13 04:56:28;;;;;;;;;;;;;;;21.57;75.26;99345.88;5057861;28;19920;-83
2021/08/13 04:58:53;;;;;;;;;;;;;;;21.79;75.55;99339.09;5073136;28;19935;-82
2021/08/13 05:01:18;;;;;;;;;;;;;;;22.01;72.21;99340.94;5054934;28;19920;-82
2021/08/13 05:03:43;;;;;;;;;;;;;;;21.96;74.71;99341.28;5057524;28;20284;-82
2021/08/13 05:06:09;;;;;;;;;;;;;;;22.29;66.58;99347.66;5072290;28;20043;-81
2021/08/13 05:08:35;;;;;;;;;;;;;;;22.49;69.63;99349.59;5058889;28;19919;-81
2021/08/13 05:11:00;;;;;;;;;;;;;;;22.09;68.44;99349.91;5063366;28;20014;-81
2021/08/13 05:13:25;;;;;;;;;;;;;;;22.00;72.40;99347.97;5066613;28;19920;-81
2021/08/13 05:15:51;;;;;;;;;;;;;;;22.05;72.08;99351.09;5075064;28;19977;-80
2021/08/13 05:18:16;;;;;;;;;;;;;;;22.11;74.25;99353.28;5065826;28;19921;-81
2021/08/13 05:20:41;;;;;;;;;;;;;;;22.01;75.67;99354.91;5066418;28;19920;-81
2021/08/13 05:23:07;;;;;;;;;;;;;;;22.03;75.60;99355.66;5048864;28;19997;-81
2021/08/13 05:25:32;;;;;;;;;;;;;;;22.33;71.10;99351.72;5074488;28;19916;-82
2021/08/13 05:27:58;;;;;;;;;;;;;;;22.07;76.82;99348.38;5054321;28;20023;-81
2021/08/13 05:30:23;;;;;;;;;;;;;;;22.36;71.00;99346.22;5055641;28;20318;-81
2021/08/13 05:32:50;;;;;;;;;;;;;;;22.55;72.61;99338.63;5049894;28;19927;-80
2021/08/13 05:35:15;;;;;;;;;;;;;;;22.40;73.57;99334.56;5071928;28;19921;-80
2021/08/13 05:37:41;;;;;;;;;;;;;;;22.57;72.53;99335.06;5049258;28;19938;-82
2021/08/13 05:40:06;;;;;;;;;;;;;;;22.77;70.23;99347.50;5069624;28;20507;-81
2021/08/13 05:42:32;;;;;;;;;;;;;;;22.80;70.43;99344.63;5073022;28;19927;-81
2021/08/13 05:44:57;;;;;;;;;;;;;;;22.83;72.80;99341.78;5068696;28;19921;-81
2021/08/13 05:47:22;;;;;;;;;;;;;;;22.70;69.75;99351.53;5072012;28;19947;-80
2021/08/13 05:49:48;;;;;;;;;;;;;;;22.95;69.50;99346.06;5057364;28;20644;-81
2021/08/13 05:52:13;;;;;;;;;;;;;;;23.16;69.94;99353.25;5073397;28;19935;-81
2021/08/13 05:54:38;;;;;;;;;;;;;;;23.35;66.55;99350.00;5054271;28;19920;-80
2021/08/13 05:57:04;;;;;;;;;;;;;;;23.15;68.30;99352.41;5069966;28;19935;-80
2021/08/13 05:59:29;;;;;;;;;;;;;;;23.05;70.25;99345.38;5070693;28;19916;-79
2021/08/13 06:01:54;;;;;;;;;;;;;;;23.52;74.08;99353.94;5071640;28;19920;-79
2021/08/13 06:04:20;;;;;;;;;;;;;;;23.54;67.12;99357.25;5070264;28;19955;-81
2021/08/13 06:06:45;;;;;;;;;;;;;;;23.79;67.61;99364.88;5073909;28;19920;-81
2021/08/13 06:09:11;;;;;;;;;;;;;;;23.86;65.71;99359.94;5057844;28;19947;-80
2021/08/13 06:11:36;;;;;;;;;;;;;;;24.01;67.95;99365.75;5069705;28;19924;-80
2021/08/13 06:14:01;;;;;;;;;;;;;;;24.16;66.64;99359.22;5069469;28;19927;-80
2021/08/13 06:16:27;;;;;;;;;;;;;;;24.47;67.87;99361.94;5071930;28;19924;-81
2021/08/13 06:18:52;;;;;;;;;;;;;;;24.62;67.28;99368.56;5063880;28;20003;-80
2021/08/13 06:21:17;;;;;;;;;;;;;;;25.29;63.79;99369.00;5055020;28;19904;-81
2021/08/13 06:23:43;;;;;;;;;;;;;;;25.00;66.73;99377.63;5071376;28;19971;-80
2021/08/13 06:26:13;;;;;;;;;;;;;;;24.75;63.00;99376.25;5050892;28;19918;-81
2021/08/13 06:28:39;;;;;;;;;;;;;;;24.68;64.02;99369.00;5063439;28;19920;-81
2021/08/13 06:31:04;;;;;;;;;;;;;;;24.79;65.52;99364.50;5072126;28;19924;-80
2021/08/13 06:33:29;;;;;;;;;;;;;;;24.81;67.82;99364.34;5071576;28;19945;-83
2021/08/13 06:35:55;;;;;;;;;;;;;;;24.92;67.05;99366.91;5073016;28;20014;-79
2021/08/13 06:38:20;;;;;;;;;;;;;;;24.70;67.78;99357.38;5073481;28;19923;-81
2021/08/13 06:40:45;;;;;;;;;;;;;;;25.24;64.00;99363.31;5053160;28;19956;-80
2021/08/13 06:43:11;;;;;;;;;;;;;;;24.89;64.09;99361.91;5071235;28;19920;-80
2021/08/13 06:45:36;;;;;;;;;;;;;;;24.95;64.71;99363.16;5072207;28;19924;-79
2021/08/13 06:48:02;;;;;;;;;;;;;;;25.58;65.09;99373.53;5072720;28;19920;-80
2021/08/13 06:50:27;;;;;;;;;;;;;;;25.48;60.98;99378.81;5071049;28;19924;-80
2021/08/13 06:52:52;;;;;;;;;;;;;;;25.02;64.73;99377.47;5055415;28;19916;-82
2021/08/13 06:55:17;;;;;;;;;;;;;;;25.02;64.60;99377.47;5071950;28;20026;-80
2021/08/13 06:57:43;;;;;;;;;;;;;;;25.43;65.83;99376.56;5066541;28;19968;-80
2021/08/13 07:00:09;;;;;;;;;;;;;;;25.60;63.57;99382.16;5062687;28;20620;-83
2021/08/13 07:02:35;;;;;;;;;;;;;;;25.70;64.32;99387.44;5052203;28;20367;-80
2021/08/13 07:05:00;;;;;;;;;;;;;;;25.76;61.78;99386.91;5069516;28;19976;-80
2021/08/13 07:07:26;;;;;;;;;;;;;;;25.59;61.42;99385.75;5054376;28;19923;-82
2021/08/13 07:09:51;;;;;;;;;;;;;;;26.04;62.01;99385.28;5072694;28;19934;-80
2021/08/13 07:12:17;;;;;;;;;;;;;;;26.19;60.91;99383.91;5058705;28;19969;-82
2021/08/13 07:14:42;;;;;;;;;;;;;;;26.37;60.43;99385.84;5070021;28;19924;-79
2021/08/13 07:17:08;;;;;;;;;;;;;;;26.07;62.25;99398.22;5071004;28;19920;-83
2021/08/13 07:19:33;;;;;;;;;;;;;;;26.15;62.72;99392.25;5073001;28;19920;-83
2021/08/13 07:21:58;;;;;;;;;;;;;;;26.39;59.91;99394.44;5073256;28;19924;-79
2021/08/13 07:24:24;;;;;;;;;;;;;;;26.97;60.26;99394.34;5049237;28;20398;-79
2021/08/13 07:26:49;;;;;;;;;;;;;;;27.52;57.29;99404.97;5066650;28;19970;-80
2021/08/13 07:29:15;;;;;;;;;;;;;;;27.44;58.75;99396.94;5071671;28;20336;-80
2021/08/13 07:31:40;;;;;;;;;;;;;;;27.58;58.01;99397.44;5066629;28;19921;-82
2021/08/13 07:34:07;;;;;;;;;;;;;;;27.65;57.09;99396.69;5069828;28;19960;-80
2021/08/13 07:36:32;;;;;;;;;;;;;;;27.08;57.43;99391.50;5052924;28;20298;-81
2021/08/13 07:38:57;;;;;;;;;;;;;;;27.16;57.86;99398.72;5050943;28;19916;-80
2021/08/13 07:41:23;;;;;;;;;;;;;;;27.60;57.09;99391.00;5071862;28;20005;-80
2021/08/13 07:43:48;;;;;;;;;;;;;;;27.93;56.32;99394.00;5068223;28;20887;-81
2021/08/13 07:46:14;;;;;;;;;;;;;;;28.29;54.86;99391.38;5071725;28;19916;-79
2021/08/13 07:48:39;;;;;;;;;;;;;;;28.17;54.47;99396.06;5072393;28;20535;-80
2021/08/13 07:51:05;;;;;;;;;;;;;;;28.06;54.16;99396.31;5069328;28;20535;-80
2021/08/13 07:53:30;;;;;;;;;;;;;;;28.04;54.43;99388.50;5068887;28;19926;-80
2021/08/13 07:55:55;;;;;;;;;;;;;;;28.21;54.06;99386.81;5070754;28;19917;-80
2021/08/13 07:58:21;;;;;;;;;;;;;;;28.19;54.40;99391.47;5046473;28;19922;-82
2021/08/13 08:00:46;;;;;;;;;;;;;;;28.44;54.34;99383.69;5055699;28;19912;-80
2021/08/13 08:03:13;;;;;;;;;;;;;;;28.85;53.83;99378.66;5071265;28;19917;-80
2021/08/13 08:05:38;;;;;;;;;;;;;;;28.29;54.20;99381.59;5055478;28;19916;-80
2021/08/13 08:08:17;;;;;;;;;;;;;;;28.45;54.49;99380.88;5070463;28;19961;-79
2021/08/13 08:10:46;;;;;;;;;;;;;;;28.84;53.35;99384.97;5072734;28;19920;-80
2021/08/13 08:13:11;;;;;;;;;;;;;;;29.19;52.80;99387.50;5072163;28;19959;-80
2021/08/13 08:15:36;;;;;;;;;;;;;;;29.22;51.53;99391.66;5071765;28;19958;-80
2021/08/13 08:18:02;;;;;;;;;;;;;;;29.14;51.78;99387.13;5056264;28;19916;-79
2021/08/13 08:20:27;;;;;;;;;;;;;;;29.74;52.04;99393.31;5073054;28;20271;-81
2021/08/13 08:22:52;;;;;;;;;;;;;;;29.47;52.29;99397.03;5067639;28;19917;-80
2021/08/13 08:25:18;;;;;;;;;;;;;;;29.61;50.75;99391.13;5071554;28;19920;-83
2021/08/13 08:27:43;;;;;;;;;;;;;;;30.19;50.10;99397.38;5071105;28;20101;-81
2021/08/13 08:30:09;;;;;;;;;;;;;;;29.49;50.81;99405.66;5053077;28;19916;-79
2021/08/13 08:32:34;;;;;;;;;;;;;;;29.93;52.96;99410.81;5072120;28;19927;-81
2021/08/13 08:34:59;;;;;;;;;;;;;;;30.23;50.70;99410.16;5054771;28;20008;-80
2021/08/13 08:37:25;;;;;;;;;;;;;;;30.87;48.95;99417.47;5056368;28;19923;-81
2021/08/13 08:39:50;;;;;;;;;;;;;;;30.44;49.25;99422.97;5073819;28;20007;-80
2021/08/13 08:42:16;;;;;;;;;;;;;;;31.03;48.09;99421.91;5076983;28;19916;-80
2021/08/13 08:44:41;;;;;;;;;;;;;;;31.09;48.42;99413.25;5077316;28;19921;-78
2021/08/13 08:47:10;;;;;;;;;;;;;;;31.11;46.28;99408.59;5075299;28;19921;-82
2021/08/13 08:49:40;;;;;;;;;;;;;;;30.42;49.09;99411.66;5073505;28;19916;-81
2021/08/13 08:52:06;;;;;;;;;;;;;;;30.15;50.18;99418.13;5056914;28;19962;-82
2021/08/13 08:54:31;;;;;;;;;;;;;;;30.08;47.19;99411.78;5074593;28;19984;-80
2021/08/13 08:56:57;;;;;;;;;;;;;;;29.08;54.48;99419.63;5066390;28;19952;-80
2021/08/13 08:59:23;;;;;;;;;;;;;;;29.31;55.40;99419.03;5058908;28;19916;-82
2021/08/13 09:01:48;;;;;;;;;;;;;;;30.76;52.23;99415.97;5075529;28;19923;-80
2021/08/13 09:04:13;;;;;;;;;;;;;;;30.70;48.14;99411.34;5076424;28;19920;-80
2021/08/13 09:06:40;;;;;;;;;;;;;;;31.45;50.87;99412.78;5071664;28;19912;-80
2021/08/13 09:09:05;;;;;;;;;;;;;;;30.37;48.08;99424.63;5067071;28;20950;-80
2021/08/13 09:11:31;;;;;;;;;;;;;;;30.85;48.28;99420.28;5056960;28;19970;-82
2021/08/13 09:14:00;;;;;;;;;;;;;;;31.41;47.37;99422.16;5077541;28;20396;-81
2021/08/13 09:16:25;;;;;;;;;;;;;;;31.43;52.31;99438.75;5076733;28;20055;-80
2021/08/13 09:18:58;;;;;;;;;;;;;;;30.78;48.42;99445.88;5054369;28;19983;-80
2021/08/13 09:21:24;;;;;;;;;;;;;;;31.42;47.65;99435.28;5075172;28;19923;-82
2021/08/13 09:23:49;;;;;;;;;;;;;;;31.32;49.63;99439.13;5078523;28;19916;-80
2021/08/13 09:26:20;;;;;;;;;;;;;;;32.20;47.53;99443.34;5072899;28;19974;-77
2021/08/13 09:28:47;;;;;;;;;;;;;;;32.55;44.36;99441.06;5075469;28;19916;-78
2021/08/13 09:31:21;;;;;;;;;;;;;;;29.78;55.61;99447.78;5075667;28;19959;-79
2021/08/13 09:33:50;;;;;;;;;;;;;;;27.42;69.28;99451.81;5076196;28;19994;-78
2021/08/13 09:36:17;;;;;;;;;;;;;;;27.48;72.86;99450.38;5075771;28;20567;-79
2021/08/13 09:38:43;;;;;;;;;;;;;;;28.17;69.66;99446.38;5058551;28;19916;-78
2021/08/13 09:41:11;;;;;;;;;;;;;;;28.91;71.01;99449.63;5074512;28;19916;-78
2021/08/13 09:44:12;;;;;;;;;;;;;;;28.08;67.29;99442.00;5057924;28;19920;-83
2021/08/13 09:46:46;;;;;;;;;;;;;;;28.08;68.82;99447.28;5036143;28;20070;-82
2021/08/13 09:49:12;;;;;;;;;;;;;;;27.83;71.64;99447.00;5065096;28;19916;-80
2021/08/13 09:51:37;;;;;;;;;;;;;;;27.91;70.79;99457.69;5076003;28;20011;-79
2021/08/13 09:54:04;;;;;;;;;;;;;;;27.89;66.79;99461.47;5073422;28;20011;-79
2021/08/13 09:56:30;;;;;;;;;;;;;;;28.27;64.07;99465.66;5077361;28;19934;-79
2021/08/13 09:59:12;;;;;;;;;;;;;;;27.74;70.34;99461.13;5058389;28;20081;-77
2021/08/13 10:01:41;;;;;;;;;;;;;;;28.50;66.25;99463.41;5075557;28;19916;-79
2021/08/13 10:04:07;;;;;;;;;;;;;;;29.19;66.31;99459.13;5078639;28;19923;-81
2021/08/13 10:06:34;;;;;;;;;;;;;;;28.61;71.79;99453.56;5078416;28;19915;-83
2021/08/13 10:08:59;;;;;;;;;;;;;;;29.33;64.99;99464.81;5060598;28;19916;-81
2021/08/13 10:11:25;;;;;;;;;;;;;;;28.57;63.85;99460.97;5079114;28;19946;-82
2021/08/13 10:13:50;;;;;;;;;;;;;;;28.16;67.62;99463.25;5074808;28;19927;-79
2021/08/13 10:16:25;;;;;;;;;;;;;;;29.40;69.28;99460.56;5075174;28;20359;-79
2021/08/13 10:18:55;;;;;;;;;;;;;;;28.20;68.45;99464.63;5058998;28;19960;-79
2021/08/13 10:21:20;;;;;;;;;;;;;;;30.07;57.69;99462.44;5063026;28;19939;-79
2021/08/13 10:23:45;;;;;;;;;;;;;;;28.54;63.74;99463.94;5056867;28;19917;-77
2021/08/13 10:26:11;;;;;;;;;;;;;;;28.89;66.85;99459.56;5076432;28;19916;-82
2021/08/13 10:28:36;;;;;;;;;;;;;;;28.41;65.95;99464.28;5076761;28;19916;-78
2021/08/13 10:31:02;;;;;;;;;;;;;;;29.51;66.18;99465.56;5074800;28;19920;-78
2021/08/13 10:33:27;;;;;;;;;;;;;;;29.96;63.45;99456.44;5075208;28;19919;-79
2021/08/13 10:35:56;;;;;;;;;;;;;;;28.62;62.33;99461.34;5076241;28;19923;-79
2021/08/13 10:38:22;;;;;;;;;;;;;;;29.69;64.05;99460.19;5078152;28;19921;-81
2021/08/13 10:40:47;;;;;;;;;;;;;;;28.17;71.32;99456.97;5073371;28;19916;-80
2021/08/13 10:43:13;;;;;;;;;;;;;;;27.80;79.51;99449.94;5078423;28;19916;-81
2021/08/13 10:45:38;;;;;;;;;;;;;;;27.71;76.33;99445.53;5075459;28;19931;-82
2021/08/13 10:48:11;;;;;;;;;;;;;;;27.70;77.78;99449.16;5073454;28;19969;-80
2021/08/13 10:50:37;;;;;;;;;;;;;;;28.36;76.55;99445.38;5074397;28;19916;-80
2021/08/13 10:53:02;;;;;;;;;;;;;;;28.92;69.77;99440.69;5069176;28;19942;-80
2021/08/13 10:55:45;;;;;;;;;;;;;;;29.92;64.81;99436.50;5068681;28;19927;-80
2021/08/13 10:58:11;;;;;;;;;;;;;;;30.30;63.75;99452.88;5069436;28;19995;-80
2021/08/13 11:00:55;;;;;;;;;;;;;;;28.60;67.71;99452.72;5071805;28;20030;-82
2021/08/13 11:03:21;;;;;;;;;;;;;;;28.41;70.92;99458.16;5069026;28;19992;-78
2021/08/13 11:05:49;;;;;;;;;;;;;;;28.49;71.24;99459.13;5068386;28;20247;-83
2021/08/13 11:08:15;;;;;;;;;;;;;;;28.66;69.65;99461.88;5069091;28;19920;-83
2021/08/13 11:10:40;;;;;;;;;;;;;;;28.20;71.76;99461.97;5065605;28;19912;-80
2021/08/13 11:13:10;;;;;;;;;;;;;;;27.86;75.08;99464.44;5066895;28;19920;-82
2021/08/13 11:15:35;;;;;;;;;;;;;;;28.29;65.03;99461.06;5059501;28;20257;-81
2021/08/13 11:18:00;;;;;;;;;;;;;;;29.55;66.33;99456.28;5067126;28;19916;-80
2021/08/13 11:20:26;;;;;;;;;;;;;;;29.08;62.29;99462.06;5050424;28;20072;-80
2021/08/13 11:23:00;;;;;;;;;;;;;;;28.65;65.06;99461.06;5070141;28;19930;-84
2021/08/13 11:25:25;;;;;;;;;;;;;;;29.02;66.17;99461.81;5070634;28;19916;-80
2021/08/13 11:28:09;;;;;;;;;;;;;;;30.05;65.86;99464.44;5051548;28;19992;-80
2021/08/13 11:30:42;;;;;;;;;;;;;;;28.36;64.25;99472.69;5065232;28;19927;-84
2021/08/13 11:33:25;;;;;;;;;;;;;;;29.38;61.58;99479.28;5054516;28;19916;-80
2021/08/13 11:35:51;;;;;;;;;;;;;;;28.32;62.82;99471.34;5069068;28;19920;-80
2021/08/13 11:38:35;;;;;;;;;;;;;;;27.97;65.72;99484.56;5067012;28;19916;-82
2021/08/13 11:41:00;;;;;;;;;;;;;;;27.99;68.67;99479.97;5068549;28;19966;-81
2021/08/13 11:43:26;;;;;;;;;;;;;;;28.49;64.65;99492.72;5057777;28;19925;-82
2021/08/13 11:45:51;;;;;;;;;;;;;;;29.32;59.86;99484.38;5067836;28;19920;-81
2021/08/13 11:48:16;;;;;;;;;;;;;;;27.97;65.86;99495.16;5066575;28;19920;-82
2021/08/13 11:50:42;;;;;;;;;;;;;;;27.09;73.10;99501.56;5059410;28;19916;-82
2021/08/13 11:53:07;;;;;;;;;;;;;;;27.85;70.96;99495.38;5062083;28;19994;-82
2021/08/13 11:55:33;;;;;;;;;;;;;;;27.68;65.70;99493.47;5038140;28;19918;-80
2021/08/13 11:58:02;;;;;;;;;;;;;;;27.90;66.25;99503.69;5063473;28;19927;-82
2021/08/13 12:00:32;;;;;;;;;;;;;;;27.50;62.49;99496.03;5058569;28;19978;-84
2021/08/13 12:03:00;;;;;;;;;;;;;;;27.54;66.40;99514.13;5061416;28;19916;-82
2021/08/13 12:05:29;;;;;;;;;;;;;;;29.21;57.55;99500.56;5066646;28;20041;-82
2021/08/13 12:07:58;;;;;;;;;;;;;;;28.49;57.63;99501.50;5051230;28;19920;-80
2021/08/13 12:10:24;;;;;;;;;;;;;;;28.62;58.87;99500.28;5062602;28;20409;-81
2021/08/13 12:12:49;;;;;;;;;;;;;;;29.13;56.21;99494.22;5053395;28;20018;-82
2021/08/13 12:15:21;;;;;;;;;;;;;;;30.14;57.02;99500.66;5066561;28;19939;-80
2021/08/13 12:17:51;;;;;;;;;;;;;;;31.22;49.74;99501.34;5044977;28;19916;-81
2021/08/13 12:20:16;;;;;;;;;;;;;;;30.44;52.46;99505.34;5067831;28;19923;-81
2021/08/13 12:22:41;;;;;;;;;;;;;;;32.12;49.12;99494.03;5051817;28;19916;-81
2021/08/13 12:25:08;;;;;;;;;;;;;;;31.96;48.04;99494.94;5050685;28;19924;-81
2021/08/13 12:27:34;;;;;;;;;;;;;;;30.13;52.67;99501.63;5055319;28;20001;-82
2021/08/13 12:29:59;;;;;;;;;;;;;;;32.03;48.50;99496.75;5068595;28;19916;-81
2021/08/13 12:32:35;;;;;;;;;;;;;;;29.08;59.29;99495.66;5067063;28;19941;-81
2021/08/13 12:35:00;;;;;;;;;;;;;;;28.39;61.76;99497.22;5063952;28;20002;-77
2021/08/13 12:37:25;;;;;;;;;;;;;;;28.43;63.63;99510.03;5051197;28;20035;-79
2021/08/13 12:39:50;;;;;;;;;;;;;;;28.22;66.42;99512.97;5053590;28;20502;-80
2021/08/13 12:42:16;;;;;;;;;;;;;;;29.23;61.67;99517.16;5068583;28;19981;-82
2021/08/13 12:44:42;;;;;;;;;;;;;;;28.88;60.43;99524.19;5068534;28;19987;-81